In Rescue
 
Open Full Screen Window  High Contrast Mode
Wind Gusting 00 knots
12
April 19, 2021 5:59 PM CDT
Weather Information
Wind Direction
  320 °
Wind Speed
  12 kt (14 mph)
Wind Gust
  00 kt (0 mph)
Altimeter
30.04 in
Visibility
10 SM
Temperature
04° C
39° F
Dewpoint
-08° C
18° F
Humidity
42%
1hr Rain Fall
00.00 in.
24hr Rain Fall
00.00 in.
Sky Condition
Missing
VFR

METAR KMGG 192259Z AUTO 32012KT 10SM 04/M08 A3004 RMK AO2

FAA Disclaimer: The data displayed is for advisory purposes only and is not to be used for flight planning or operations.
Missing Cloud Data